createdAt,value
2018-02-05T00:00:37.397Z,27.52
2018-02-05T00:01:43.103Z,26.00
2018-02-05T00:02:49.597Z,25.40
2018-02-05T00:03:55.308Z,28.67
2018-02-05T00:05:01.016Z,24.17
2018-02-05T00:06:06.801Z,26.62
2018-02-05T00:07:12.669Z,21.17
2018-02-05T00:08:18.047Z,27.02
2018-02-05T00:09:23.744Z,26.37
2018-02-05T00:10:29.454Z,24.25
2018-02-05T00:11:35.189Z,28.62
2018-02-05T00:12:41.669Z,23.95
2018-02-05T00:13:47.388Z,23.52
2018-02-05T00:14:53.135Z,21.48
2018-02-05T00:15:59.267Z,25.50
2018-02-05T00:17:05.772Z,25.75
2018-02-05T00:18:11.495Z,22.37
2018-02-05T00:19:17.205Z,25.12
2018-02-05T00:20:23.686Z,23.73
2018-02-05T00:21:29.398Z,26.12
2018-02-05T00:22:35.124Z,24.50
2018-02-05T00:23:40.503Z,23.15
2018-02-05T00:24:47.786Z,23.98
2018-02-05T00:25:53.496Z,24.87
2018-02-05T00:26:59.967Z,26.83
2018-02-05T00:28:06.465Z,23.87
2018-02-05T00:29:12.178Z,24.65
2018-02-05T00:30:17.882Z,24.37
2018-02-05T00:31:23.592Z,24.67
2018-02-05T00:32:29.300Z,27.05
2018-02-05T00:33:35.025Z,25.58
2018-02-05T00:34:40.736Z,24.17
2018-02-05T00:35:47.232Z,24.08
2018-02-05T00:36:53.153Z,24.02
2018-02-05T00:37:59.640Z,23.35
2018-02-05T00:39:04.287Z,23.60
2018-02-05T00:40:09.999Z,23.35
2018-02-05T00:41:15.703Z,25.25
2018-02-05T00:42:21.404Z,24.60
2018-02-05T00:43:26.919Z,23.10
2018-02-05T00:44:31.812Z,21.90
2018-02-05T00:45:38.296Z,24.63
2018-02-05T00:46:43.996Z,24.73
2018-02-05T00:47:50.868Z,25.85
2018-02-05T00:48:57.349Z,27.62
2018-02-05T00:50:03.859Z,24.83
2018-02-05T00:52:12.291Z,27.87
2018-02-05T00:53:17.989Z,24.90
2018-02-05T00:54:23.776Z,22.42
2018-02-05T00:55:29.507Z,27.00
2018-02-05T00:56:34.605Z,23.70
2018-02-05T00:57:40.310Z,24.20
2018-02-05T00:58:46.063Z,27.73
2018-02-05T00:59:52.758Z,24.10
2018-02-05T01:00:58.476Z,23.73
2018-02-05T01:02:04.176Z,23.50
2018-02-05T01:03:10.664Z,23.42
2018-02-05T01:04:17.140Z,24.80
2018-02-05T01:05:22.207Z,24.40
2018-02-05T01:06:27.940Z,22.15
2018-02-05T01:07:33.640Z,23.45
2018-02-05T01:08:39.339Z,27.58
2018-02-05T01:09:45.209Z,23.70
2018-02-05T01:10:50.939Z,24.42
2018-02-05T01:11:57.439Z,26.77
2018-02-05T01:13:03.149Z,20.35
2018-02-05T01:14:08.875Z,23.12
2018-02-05T01:15:15.340Z,22.92
2018-02-05T01:16:21.044Z,25.15
2018-02-05T01:17:26.784Z,25.58
2018-02-05T01:18:32.496Z,24.27
2018-02-05T01:19:38.207Z,22.50
2018-02-05T01:20:43.924Z,24.00
2018-02-05T01:21:50.405Z,26.02
2018-02-05T01:22:56.155Z,23.65
2018-02-05T01:24:01.890Z,23.77
2018-02-05T01:25:07.597Z,23.35
2018-02-05T01:26:13.299Z,24.75
2018-02-05T01:27:19.007Z,21.48
2018-02-05T01:28:24.760Z,24.87
2018-02-05T01:29:30.471Z,24.27
2018-02-05T01:30:36.940Z,25.67
2018-02-05T01:31:42.656Z,21.05
2018-02-05T01:32:48.358Z,26.77
2018-02-05T01:33:54.084Z,26.83
2018-02-05T01:34:59.793Z,24.85
2018-02-05T01:36:05.496Z,29.73
2018-02-05T01:37:11.196Z,26.90
2018-02-05T01:38:16.928Z,25.25
2018-02-05T01:39:22.655Z,26.95
2018-02-05T01:40:28.363Z,27.02
2018-02-05T01:41:34.133Z,27.35
2018-02-05T01:42:40.749Z,26.70
2018-02-05T01:43:46.464Z,24.77
2018-02-05T01:44:52.222Z,26.90
2018-02-05T01:45:57.946Z,28.73
2018-02-05T01:47:03.679Z,25.90
2018-02-05T01:48:10.156Z,26.30
2018-02-05T01:49:15.857Z,24.15
2018-02-05T01:50:21.583Z,24.48
2018-02-05T01:51:28.804Z,27.20
2018-02-05T01:52:34.511Z,25.10
2018-02-05T01:53:40.980Z,26.55
2018-02-05T01:54:47.452Z,24.70
2018-02-05T01:55:53.191Z,27.80
2018-02-05T01:56:58.899Z,28.38
2018-02-05T01:58:04.609Z,26.35
2018-02-05T01:59:10.315Z,27.20
2018-02-05T02:00:16.055Z,26.75
2018-02-05T02:01:22.540Z,30.55
2018-02-05T02:02:28.251Z,31.60
2018-02-05T02:03:33.971Z,24.67
2018-02-05T02:04:40.435Z,26.15
2018-02-05T02:05:46.007Z,27.70
2018-02-05T02:06:51.740Z,26.15
2018-02-05T02:07:57.451Z,27.87
2018-02-05T02:09:03.497Z,25.40
2018-02-05T02:10:09.962Z,28.60
2018-02-05T02:11:16.441Z,27.85
2018-02-05T02:12:22.183Z,27.02
2018-02-05T02:13:27.932Z,32.33
2018-02-05T02:14:33.641Z,32.13
2018-02-05T02:15:40.120Z,31.62
2018-02-05T02:16:45.820Z,26.30
2018-02-05T02:17:51.552Z,29.90
2018-02-05T02:18:57.273Z,29.37
2018-02-05T02:20:02.990Z,28.67
2018-02-05T02:21:08.693Z,27.95
2018-02-05T02:22:15.181Z,31.23
2018-02-05T02:23:20.580Z,33.97
2018-02-05T02:24:27.051Z,30.85
2018-02-05T02:25:33.536Z,32.15
2018-02-05T02:26:39.086Z,30.75
2018-02-05T02:27:44.786Z,30.75
2018-02-05T02:28:51.286Z,31.35
2018-02-05T02:29:57.019Z,28.90
2018-02-05T02:31:02.732Z,33.20
2018-02-05T02:32:09.199Z,30.58
2018-02-05T02:33:14.917Z,32.15
2018-02-05T02:34:21.420Z,27.85
2018-02-05T02:35:26.467Z,32.40
2018-02-05T02:36:32.188Z,33.85
2018-02-05T02:37:38.241Z,32.83
2018-02-05T02:38:43.943Z,39.40
2018-02-05T02:39:49.679Z,35.53
2018-02-05T02:40:56.172Z,31.25
2018-02-05T02:42:01.885Z,33.53
2018-02-05T02:43:08.348Z,27.85
2018-02-05T02:44:14.060Z,36.85
2018-02-05T02:45:19.803Z,35.83
2018-02-05T02:46:25.512Z,34.88
2018-02-05T02:47:31.047Z,35.20
2018-02-05T02:48:36.779Z,36.10
2018-02-05T02:49:42.488Z,37.33
2018-02-05T02:50:48.227Z,40.50
2018-02-05T02:51:53.941Z,32.67
2018-02-05T02:52:59.648Z,33.03
2018-02-05T02:54:05.414Z,33.60
2018-02-05T02:55:11.128Z,29.23
2018-02-05T02:56:16.864Z,37.40
2018-02-05T02:57:22.567Z,36.15
2018-02-05T02:58:28.274Z,31.85
2018-02-05T02:59:33.985Z,38.97
2018-02-05T03:00:39.770Z,36.65
2018-02-05T03:01:46.283Z,33.00
2018-02-05T03:02:52.004Z,33.75
2018-02-05T03:03:57.740Z,29.63
2018-02-05T03:05:03.440Z,32.22
2018-02-05T03:06:09.153Z,31.12
2018-02-05T03:07:14.896Z,33.00
2018-02-05T03:08:20.607Z,30.37
2018-02-05T03:09:26.316Z,34.17
2018-02-05T03:10:32.805Z,30.40
2018-02-05T03:11:38.517Z,33.47
2018-02-05T03:12:45.017Z,27.58
2018-02-05T03:13:50.732Z,31.70
2018-02-05T03:14:56.482Z,29.55
2018-02-05T03:16:02.175Z,31.90
2018-02-05T03:17:07.891Z,30.05
2018-02-05T03:18:13.620Z,34.90
2018-02-05T03:19:19.347Z,32.40
2018-02-05T03:20:25.056Z,32.17
2018-02-05T03:21:30.849Z,30.70
2018-02-05T03:22:36.540Z,28.05
2018-02-05T03:23:43.041Z,29.15
2018-02-05T03:24:48.755Z,32.88
2018-02-05T03:25:54.459Z,33.95
2018-02-05T03:27:00.251Z,30.02
2018-02-05T03:28:05.948Z,28.10
2018-02-05T03:29:11.676Z,29.80
2018-02-05T03:30:17.387Z,29.23
2018-02-05T03:31:23.088Z,28.73
2018-02-05T03:32:29.555Z,29.50
2018-02-05T03:33:36.027Z,31.95
2018-02-05T03:34:41.768Z,32.78
2018-02-05T03:35:46.577Z,30.08
2018-02-05T03:36:53.052Z,30.08
2018-02-05T03:37:58.792Z,30.77
2018-02-05T03:39:03.933Z,32.00
2018-02-05T03:40:09.006Z,31.75
2018-02-05T03:41:14.709Z,30.90
2018-02-05T03:42:20.416Z,29.60
2018-02-05T03:43:26.132Z,30.30
2018-02-05T03:44:31.824Z,29.27
2018-02-05T03:45:37.573Z,31.98
2018-02-05T03:46:43.317Z,31.15
2018-02-05T03:47:49.031Z,36.38
2018-02-05T03:48:54.741Z,38.75
2018-02-05T03:50:01.233Z,65.22
2018-02-05T03:51:06.979Z,85.78
2018-02-05T03:52:12.674Z,57.13
2018-02-05T03:53:19.159Z,46.67
2018-02-05T03:54:24.859Z,76.55
2018-02-05T03:55:30.579Z,98.05
2018-02-05T03:56:36.299Z,71.60
2018-02-05T03:57:41.999Z,60.75
2018-02-05T03:58:48.476Z,44.90
2018-02-05T03:59:54.197Z,54.05
2018-02-05T04:00:59.895Z,48.25
2018-02-05T04:02:05.301Z,38.30
2018-02-05T04:03:11.008Z,51.50
2018-02-05T04:04:17.481Z,46.47
2018-02-05T04:05:23.196Z,39.65
2018-02-05T04:06:28.732Z,42.83
2018-02-05T04:07:34.463Z,38.08
2018-02-05T04:08:40.436Z,36.13
2018-02-05T04:09:46.908Z,26.75
2018-02-05T04:10:52.294Z,29.25
2018-02-05T04:11:58.063Z,31.45
2018-02-05T04:13:03.790Z,31.27
2018-02-05T04:14:09.573Z,33.10
2018-02-05T04:15:16.031Z,34.42
2018-02-05T04:16:21.746Z,35.72
2018-02-05T04:17:28.235Z,41.25
2018-02-05T04:18:33.976Z,32.53
2018-02-05T04:19:39.684Z,33.72
2018-02-05T04:20:46.187Z,30.50
2018-02-05T04:21:51.884Z,35.97
2018-02-05T04:22:58.376Z,38.53
2018-02-05T04:24:04.112Z,36.33
2018-02-05T04:25:09.818Z,36.03
2018-02-05T04:26:16.370Z,35.63
2018-02-05T04:27:22.259Z,38.20
2018-02-05T04:28:27.973Z,40.92
2018-02-05T04:29:34.474Z,34.92
2018-02-05T04:30:40.187Z,37.22
2018-02-05T04:31:45.894Z,42.20
2018-02-05T04:32:51.600Z,30.70
2018-02-05T04:33:57.316Z,37.80
2018-02-05T04:35:03.047Z,36.00
2018-02-05T04:36:08.755Z,37.63
2018-02-05T04:37:14.463Z,31.70
2018-02-05T04:38:20.178Z,34.30
2018-02-05T04:39:25.887Z,34.00
2018-02-05T04:40:32.399Z,35.28
2018-02-05T04:41:38.425Z,37.30
2018-02-05T04:42:44.171Z,36.63
2018-02-05T04:43:49.876Z,37.42
2018-02-05T04:44:56.347Z,31.73
2018-02-05T04:46:02.096Z,36.97
2018-02-05T04:47:07.817Z,33.90
2018-02-05T04:48:13.527Z,31.33
2018-02-05T04:49:19.227Z,35.15
2018-02-05T04:50:24.288Z,34.55
2018-02-05T04:51:30.034Z,32.83
2018-02-05T04:52:35.739Z,34.00
2018-02-05T04:53:41.576Z,36.65
2018-02-05T04:54:47.503Z,38.25
2018-02-05T04:55:53.976Z,33.67
2018-02-05T04:56:59.720Z,34.03
2018-02-05T04:58:05.463Z,36.67
2018-02-05T04:59:11.206Z,39.25
2018-02-05T05:00:16.923Z,39.22
2018-02-05T05:01:23.554Z,35.63
2018-02-05T05:02:29.450Z,34.20
2018-02-05T05:03:35.168Z,36.58
2018-02-05T05:04:40.888Z,39.22
2018-02-05T05:05:46.615Z,37.08
2018-02-05T05:06:52.327Z,38.75
2018-02-05T05:07:58.059Z,41.47
2018-02-05T05:09:03.591Z,39.65
2018-02-05T05:10:09.308Z,35.97
2018-02-05T05:11:15.791Z,37.00
2018-02-05T05:12:21.504Z,40.65
2018-02-05T05:13:28.041Z,41.08
2018-02-05T05:14:33.744Z,34.90
2018-02-05T05:15:39.470Z,41.75
2018-02-05T05:16:45.169Z,39.78
2018-02-05T05:17:50.942Z,33.38
2018-02-05T05:18:57.462Z,37.35
2018-02-05T05:20:03.165Z,34.38
2018-02-05T05:21:08.891Z,40.72
2018-02-05T05:22:14.606Z,36.92
2018-02-05T05:23:21.288Z,40.08
2018-02-05T05:24:27.035Z,39.78
2018-02-05T05:25:33.503Z,45.17
2018-02-05T05:26:39.239Z,39.55
2018-02-05T05:27:44.934Z,43.78
2018-02-05T05:28:50.640Z,41.75
2018-02-05T05:29:56.398Z,34.42
2018-02-05T05:31:02.096Z,37.63
2018-02-05T05:32:07.634Z,37.85
2018-02-05T05:33:13.355Z,40.95
2018-02-05T05:34:19.836Z,42.08
2018-02-05T05:35:25.576Z,32.67
2018-02-05T05:36:31.284Z,40.83
2018-02-05T05:37:37.765Z,42.30
2018-02-05T05:38:43.470Z,45.70
2018-02-05T05:39:49.180Z,41.70
2018-02-05T05:40:54.919Z,47.95
2018-02-05T05:42:00.623Z,41.92
2018-02-05T05:43:06.344Z,42.13
2018-02-05T05:44:12.062Z,43.75
2018-02-05T05:45:17.781Z,42.45
2018-02-05T05:46:23.499Z,43.67
2018-02-05T05:47:29.212Z,38.28
2018-02-05T05:48:35.690Z,42.67
2018-02-05T05:49:42.165Z,44.75
2018-02-05T05:50:47.868Z,43.72
2018-02-05T05:51:54.376Z,38.45
2018-02-05T05:53:00.100Z,42.45
2018-02-05T05:54:05.795Z,33.97
2018-02-05T05:55:11.516Z,40.53
2018-02-05T05:56:17.228Z,39.55
2018-02-05T05:57:22.988Z,32.58
2018-02-05T05:58:28.699Z,32.50
2018-02-05T05:59:34.403Z,32.83
2018-02-05T06:00:40.887Z,44.47
2018-02-05T06:01:46.596Z,32.60
2018-02-05T06:02:52.345Z,33.20
2018-02-05T06:03:58.058Z,42.03
2018-02-05T06:05:03.763Z,50.00
2018-02-05T06:06:09.488Z,39.20
2018-02-05T06:07:15.967Z,45.47
2018-02-05T06:08:21.465Z,46.13
2018-02-05T06:09:27.952Z,38.55
2018-02-05T06:10:33.660Z,39.38
2018-02-05T06:11:40.152Z,42.92
2018-02-05T06:12:45.863Z,39.80
2018-02-05T06:13:52.363Z,45.03
2018-02-05T06:14:58.081Z,45.88
2018-02-05T06:16:04.546Z,44.10
2018-02-05T06:17:10.256Z,45.53
2018-02-05T06:18:16.727Z,44.15
2018-02-05T06:19:23.239Z,41.65
2018-02-05T06:20:28.947Z,41.83
2018-02-05T06:21:34.654Z,47.17
2018-02-05T06:22:41.131Z,45.58
2018-02-05T06:23:47.600Z,48.53
2018-02-05T06:24:54.166Z,53.20
2018-02-05T06:25:59.877Z,42.92
2018-02-05T06:27:05.587Z,45.78
2018-02-05T06:28:11.294Z,50.12
2018-02-05T06:29:17.108Z,45.20
2018-02-05T06:30:23.621Z,44.35
2018-02-05T06:31:29.334Z,42.78
2018-02-05T06:32:35.058Z,40.40
2018-02-05T06:33:40.783Z,41.25
2018-02-05T06:34:47.265Z,38.80
2018-02-05T06:35:53.024Z,43.90
2018-02-05T06:36:58.735Z,39.88
2018-02-05T06:38:04.471Z,38.88
2018-02-05T06:39:10.938Z,42.15
2018-02-05T06:40:16.648Z,45.00
2018-02-05T06:41:23.904Z,40.47
2018-02-05T06:42:29.640Z,43.63
2018-02-05T06:43:35.421Z,47.13
2018-02-05T06:44:41.913Z,45.70
2018-02-05T06:45:47.627Z,41.80
2018-02-05T06:46:54.136Z,48.90
2018-02-05T06:47:59.846Z,48.25
2018-02-05T06:49:05.548Z,45.80
2018-02-05T06:50:11.127Z,44.72
2018-02-05T06:51:33.847Z,44.53
2018-02-05T06:54:40.214Z,44.80
2018-02-05T06:55:49.577Z,41.67
2018-02-05T06:56:55.282Z,47.80
2018-02-05T06:58:01.960Z,44.97
2018-02-05T06:59:07.688Z,51.10
2018-02-05T07:00:13.423Z,50.45
2018-02-05T07:01:19.896Z,54.55
2018-02-05T07:02:25.620Z,52.10
2018-02-05T07:03:32.104Z,61.17
2018-02-05T07:04:37.839Z,54.92
2018-02-05T07:05:43.358Z,48.92
2018-02-05T07:06:49.841Z,62.88
2018-02-05T07:07:55.562Z,58.50
2018-02-05T07:09:02.023Z,52.25
2018-02-05T07:10:07.768Z,56.75
2018-02-05T07:11:13.480Z,52.20
2018-02-05T07:12:19.969Z,61.85
2018-02-05T07:13:25.789Z,67.57
2018-02-05T07:14:31.493Z,61.92
2018-02-05T07:15:37.227Z,52.60
2018-02-05T07:16:42.948Z,63.97
2018-02-05T07:17:48.655Z,62.25
2018-02-05T07:18:54.600Z,57.08
2018-02-05T07:20:01.329Z,63.08
2018-02-05T07:21:07.070Z,62.92
2018-02-05T07:22:12.796Z,64.20
2018-02-05T07:23:18.543Z,49.75
2018-02-05T07:24:24.259Z,65.95
2018-02-05T07:25:29.972Z,64.62
2018-02-05T07:26:36.475Z,58.03
2018-02-05T07:27:42.202Z,63.38
2018-02-05T07:28:47.905Z,63.58
2018-02-05T07:29:53.616Z,63.65
2018-02-05T07:30:59.316Z,57.28
2018-02-05T07:32:05.048Z,59.95
2018-02-05T07:33:10.751Z,57.25
2018-02-05T07:34:16.480Z,57.45
2018-02-05T07:35:22.179Z,60.53
2018-02-05T07:36:27.895Z,60.88
2018-02-05T07:37:34.395Z,56.50
2018-02-05T07:38:40.124Z,58.33
2018-02-05T07:39:45.828Z,58.20
2018-02-05T07:40:52.318Z,63.80
2018-02-05T07:41:58.020Z,62.40
2018-02-05T07:43:03.757Z,59.25
2018-02-05T07:44:09.470Z,65.65
2018-02-05T07:45:15.257Z,57.67
2018-02-05T07:46:21.765Z,59.25
2018-02-05T07:47:27.476Z,58.78
2018-02-05T07:48:33.226Z,49.83
2018-02-05T07:49:39.005Z,50.45
2018-02-05T07:50:44.734Z,50.20
2018-02-05T07:51:50.458Z,55.88
2018-02-05T07:52:56.165Z,48.97
2018-02-05T07:54:02.677Z,52.08
2018-02-05T07:55:08.451Z,52.42
2018-02-05T07:56:14.159Z,51.90
2018-02-05T07:57:19.870Z,50.85
2018-02-05T07:58:25.585Z,45.22
2018-02-05T07:59:32.164Z,49.50
2018-02-05T08:00:38.637Z,47.62
2018-02-05T08:01:44.139Z,44.42
2018-02-05T08:02:50.647Z,48.95
2018-02-05T08:03:56.218Z,53.22
2018-02-05T08:05:01.940Z,58.78
2018-02-05T08:06:07.650Z,50.53
2018-02-05T08:07:13.356Z,43.92
2018-02-05T08:08:19.868Z,48.97
2018-02-05T08:09:25.581Z,51.05
2018-02-05T08:10:31.316Z,42.67
2018-02-05T08:11:37.037Z,46.35
2018-02-05T08:12:43.536Z,47.03
2018-02-05T08:13:49.236Z,47.08
2018-02-05T08:14:55.741Z,43.03
2018-02-05T08:16:01.473Z,42.35
2018-02-05T08:17:07.174Z,42.60
2018-02-05T08:18:13.654Z,43.42
2018-02-05T08:19:19.356Z,42.40
2018-02-05T08:20:25.104Z,46.55
2018-02-05T08:21:30.836Z,39.85
2018-02-05T08:22:36.781Z,43.90
2018-02-05T08:23:42.498Z,40.53
2018-02-05T08:24:48.205Z,42.10
2018-02-05T08:25:53.943Z,43.95
2018-02-05T08:26:59.694Z,41.78
2018-02-05T08:28:05.414Z,42.00
2018-02-05T08:29:11.120Z,42.97
2018-02-05T08:30:18.344Z,48.80
2018-02-05T08:31:24.043Z,38.75
2018-02-05T08:32:29.785Z,45.55
2018-02-05T08:33:35.567Z,37.67
2018-02-05T08:34:42.340Z,37.92
2018-02-05T08:35:48.052Z,44.58
2018-02-05T08:36:54.519Z,42.20
2018-02-05T08:38:00.252Z,44.20
2018-02-05T08:39:05.826Z,40.40
2018-02-05T08:40:11.549Z,38.72
2018-02-05T08:41:17.260Z,37.90
2018-02-05T08:42:23.748Z,41.25
2018-02-05T08:43:29.487Z,39.90
2018-02-05T08:44:35.193Z,44.72
2018-02-05T08:45:40.584Z,41.72
2018-02-05T08:46:46.300Z,41.88
2018-02-05T08:47:52.004Z,39.00
2018-02-05T08:48:57.744Z,35.72
2018-02-05T08:50:03.468Z,37.13
2018-02-05T08:51:09.191Z,37.67
2018-02-05T08:52:14.905Z,38.03
2018-02-05T08:53:20.624Z,47.08
2018-02-05T08:54:27.127Z,42.08
2018-02-05T08:55:32.871Z,39.67
2018-02-05T08:56:38.576Z,42.55
2018-02-05T08:57:45.081Z,42.28
2018-02-05T08:58:50.794Z,42.05
2018-02-05T08:59:56.533Z,38.75
2018-02-05T09:01:02.314Z,37.90
2018-02-05T09:02:08.017Z,37.47
2018-02-05T09:03:13.725Z,39.50
2018-02-05T09:04:20.222Z,40.33
2018-02-05T09:05:25.958Z,37.97
2018-02-05T09:06:31.655Z,43.05
2018-02-05T09:07:38.802Z,35.97
2018-02-05T09:08:44.522Z,37.45
2018-02-05T09:09:50.234Z,39.97
2018-02-05T09:10:56.725Z,35.58
2018-02-05T09:12:02.445Z,34.55
2018-02-05T09:13:08.164Z,35.10
2018-02-05T09:14:14.666Z,36.92
2018-02-05T09:15:20.563Z,39.03
2018-02-05T09:16:27.080Z,36.72
2018-02-05T09:17:32.792Z,34.78
2018-02-05T09:18:38.529Z,35.75
2018-02-05T09:19:44.240Z,37.45
2018-02-05T09:20:50.721Z,40.58
2018-02-05T09:21:56.471Z,36.25
2018-02-05T09:23:02.366Z,45.95
2018-02-05T09:24:09.582Z,43.13
2018-02-05T09:25:15.280Z,44.60
2018-02-05T09:26:20.993Z,39.33
2018-02-05T09:27:26.736Z,39.25
2018-02-05T09:28:32.449Z,41.85
2018-02-05T09:29:38.187Z,42.85
2018-02-05T09:30:43.900Z,39.78
2018-02-05T09:31:50.397Z,33.60
2018-02-05T09:32:56.124Z,41.65
2018-02-05T09:34:01.875Z,39.35
2018-02-05T09:35:07.580Z,37.67
2018-02-05T09:36:13.283Z,46.05
2018-02-05T09:37:18.998Z,40.75
2018-02-05T09:38:24.732Z,37.95
2018-02-05T09:39:30.444Z,38.10
2018-02-05T09:40:36.920Z,30.95
2018-02-05T09:41:42.632Z,33.72
2018-02-05T09:42:49.108Z,34.80
2018-02-05T09:43:55.620Z,34.38
2018-02-05T09:45:01.368Z,23.50
2018-02-05T09:46:07.073Z,39.97
2018-02-05T09:47:12.780Z,33.08
2018-02-05T09:48:19.260Z,34.67
2018-02-05T09:49:24.996Z,35.10
2018-02-05T09:50:31.479Z,34.40
2018-02-05T09:51:37.197Z,37.28
2018-02-05T09:52:42.716Z,36.25
2018-02-05T09:53:49.192Z,40.03
2018-02-05T09:54:54.940Z,36.67
2018-02-05T09:56:00.660Z,37.53
2018-02-05T09:57:07.141Z,39.88
2018-02-05T09:58:12.656Z,36.70
2018-02-05T09:59:19.146Z,44.67
2018-02-05T10:00:24.883Z,37.40
2018-02-05T10:01:30.608Z,40.80
2018-02-05T10:02:36.352Z,40.40
2018-02-05T10:03:42.061Z,42.25
2018-02-05T10:04:47.782Z,45.22
2018-02-05T10:05:53.520Z,36.92
2018-02-05T10:06:59.058Z,38.03
2018-02-05T10:08:04.763Z,40.45
2018-02-05T10:09:10.479Z,40.63
2018-02-05T10:10:16.974Z,32.50
2018-02-05T10:11:22.721Z,37.40
2018-02-05T10:12:28.452Z,39.65
2018-02-05T10:13:34.152Z,42.80
2018-02-05T10:14:40.640Z,36.33
2018-02-05T10:15:46.363Z,39.58
2018-02-05T10:16:52.871Z,43.15
2018-02-05T10:17:58.597Z,38.63
2018-02-05T10:19:04.113Z,37.47
2018-02-05T10:20:09.829Z,43.85
2018-02-05T10:21:16.308Z,34.17
2018-02-05T10:22:22.062Z,40.65
2018-02-05T10:23:27.782Z,37.55
2018-02-05T10:24:34.251Z,36.22
2018-02-05T10:25:39.960Z,38.78
2018-02-05T10:26:45.668Z,38.92
2018-02-05T10:27:51.428Z,36.58
2018-02-05T10:28:57.127Z,38.13
2018-02-05T10:30:03.169Z,38.88
2018-02-05T10:31:08.878Z,37.30
2018-02-05T10:32:15.360Z,34.15
2018-02-05T10:33:21.101Z,35.72
2018-02-05T10:34:26.622Z,33.50
2018-02-05T10:35:32.907Z,35.10
2018-02-05T10:36:38.439Z,32.80
2018-02-05T10:37:43.951Z,35.17
2018-02-05T10:38:50.452Z,34.22
2018-02-05T10:39:56.168Z,34.67
2018-02-05T10:41:01.889Z,37.85
2018-02-05T10:42:08.392Z,34.42
2018-02-05T10:43:13.929Z,35.88
2018-02-05T10:44:19.466Z,35.70
2018-02-05T10:45:25.244Z,33.78
2018-02-05T10:46:30.940Z,36.45
2018-02-05T10:47:36.934Z,39.35
2018-02-05T10:48:42.643Z,38.40
2018-02-05T10:49:48.448Z,33.47
2018-02-05T10:50:54.139Z,33.42
2018-02-05T10:51:59.856Z,32.95
2018-02-05T10:53:05.573Z,34.63
2018-02-05T10:54:11.279Z,28.95
2018-02-05T10:55:17.790Z,32.22
2018-02-05T10:56:23.556Z,32.35
2018-02-05T10:57:29.260Z,29.77
2018-02-05T10:58:34.983Z,26.70
2018-02-05T10:59:40.907Z,28.15
2018-02-05T11:00:47.873Z,30.83
2018-02-05T11:01:53.577Z,32.28
2018-02-05T11:02:59.284Z,28.15
2018-02-05T11:04:05.025Z,40.03
2018-02-05T11:05:11.491Z,29.48
2018-02-05T11:06:17.233Z,38.28
2018-02-05T11:07:22.976Z,33.05
2018-02-05T11:08:28.688Z,36.10
2018-02-05T11:09:35.167Z,33.78
2018-02-05T11:10:40.882Z,31.65
2018-02-05T11:11:47.388Z,29.60
2018-02-05T11:12:53.095Z,29.90
2018-02-05T11:13:59.580Z,32.92
2018-02-05T11:15:05.294Z,30.75
2018-02-05T11:16:11.990Z,29.33
2018-02-05T11:17:17.717Z,31.80
2018-02-05T11:18:23.104Z,35.42
2018-02-05T11:19:28.824Z,34.53
2018-02-05T11:20:34.540Z,31.65
2018-02-05T11:21:40.269Z,32.47
2018-02-05T11:22:46.008Z,34.38
2018-02-05T11:23:51.737Z,31.92
2018-02-05T11:24:58.208Z,38.88
2018-02-05T11:26:03.924Z,36.40
2018-02-05T11:27:09.640Z,33.03
2018-02-05T11:28:16.135Z,40.08
2018-02-05T11:29:21.881Z,35.50
2018-02-05T11:30:28.530Z,35.03
2018-02-05T11:31:35.086Z,37.92
2018-02-05T11:32:40.998Z,39.88
2018-02-05T11:33:46.744Z,41.65
2018-02-05T11:34:52.452Z,34.90
2018-02-05T11:35:58.161Z,36.67
2018-02-05T11:37:04.648Z,34.40
2018-02-05T11:38:10.392Z,39.05
2018-02-05T11:39:16.612Z,36.42
2018-02-05T11:40:23.092Z,38.70
2018-02-05T11:41:28.803Z,39.63
2018-02-05T11:42:35.292Z,40.35
2018-02-05T11:43:41.058Z,37.97
2018-02-05T11:44:46.956Z,41.67
2018-02-05T11:45:52.920Z,37.05
2018-02-05T11:46:58.625Z,32.72
2018-02-05T11:48:04.359Z,37.65
2018-02-05T11:49:11.237Z,35.92
2018-02-05T11:50:17.741Z,38.25
2018-02-05T11:51:23.464Z,38.92
2018-02-05T11:52:29.177Z,33.08
2018-02-05T11:53:34.895Z,32.08
2018-02-05T11:54:40.607Z,29.67
2018-02-05T11:55:46.350Z,39.63
2018-02-05T11:56:52.089Z,33.17
2018-02-05T11:57:57.790Z,36.40
2018-02-05T11:59:04.280Z,37.30
2018-02-05T12:00:10.209Z,37.50
2018-02-05T12:01:15.956Z,34.45
2018-02-05T12:02:21.672Z,33.33
2018-02-05T12:03:28.147Z,31.17
2018-02-05T12:04:33.857Z,35.63
2018-02-05T12:05:39.580Z,38.88
2018-02-05T12:06:45.314Z,34.47
2018-02-05T12:07:51.020Z,30.33
2018-02-05T12:08:56.731Z,30.55
2018-02-05T12:10:03.200Z,30.50
2018-02-05T12:11:09.709Z,33.60
2018-02-05T12:12:15.449Z,34.92
2018-02-05T12:13:21.157Z,33.55
2018-02-05T12:14:26.888Z,30.50
2018-02-05T12:15:32.808Z,38.42
2018-02-05T12:16:39.344Z,35.30
2018-02-05T12:17:45.088Z,37.42
2018-02-05T12:18:50.815Z,36.22
2018-02-05T12:19:58.063Z,36.35
2018-02-05T12:21:03.785Z,39.00
2018-02-05T12:22:11.013Z,39.20
2018-02-05T12:23:16.748Z,32.40
2018-02-05T12:24:22.465Z,34.88
2018-02-05T12:25:28.181Z,27.90
2018-02-05T12:26:34.662Z,29.67
2018-02-05T12:27:40.371Z,32.00
2018-02-05T12:28:46.104Z,31.08
2018-02-05T12:29:51.813Z,26.02
2018-02-05T12:30:57.524Z,24.90
2018-02-05T12:32:03.272Z,27.25
2018-02-05T12:33:08.976Z,29.17
2018-02-05T12:34:15.480Z,24.05
2018-02-05T12:35:21.526Z,27.80
2018-02-05T12:36:27.309Z,23.95
2018-02-05T12:37:33.008Z,26.45
2018-02-05T12:38:38.736Z,22.50
2018-02-05T12:39:44.477Z,29.30
2018-02-05T12:40:51.807Z,26.08
2018-02-05T12:41:57.588Z,28.12
2018-02-05T12:43:03.302Z,29.70
2018-02-05T12:44:09.025Z,29.67
2018-02-05T12:45:14.764Z,29.90
2018-02-05T12:46:21.069Z,31.80
2018-02-05T12:47:26.769Z,26.98
2018-02-05T12:48:32.480Z,33.67
2018-02-05T12:49:38.195Z,32.70
2018-02-05T12:50:43.926Z,28.65
2018-02-05T12:51:49.641Z,33.47
2018-02-05T12:52:55.178Z,26.48
2018-02-05T12:54:00.915Z,28.02
2018-02-05T12:55:06.751Z,32.35
2018-02-05T12:56:12.281Z,29.10
2018-02-05T12:57:17.799Z,27.62
2018-02-05T12:58:24.227Z,31.35
2018-02-05T12:59:29.758Z,30.08
2018-02-05T13:00:39.165Z,30.15
2018-02-05T13:01:50.987Z,32.80
2018-02-05T13:03:12.377Z,30.92
2018-02-05T13:04:19.741Z,30.20
2018-02-05T13:05:36.772Z,31.35
2018-02-05T13:06:42.362Z,30.55
2018-02-05T13:07:48.110Z,31.60
2018-02-05T13:08:53.820Z,31.05
2018-02-05T13:09:59.524Z,31.58
2018-02-05T13:11:05.238Z,29.77
2018-02-05T13:12:10.935Z,29.60
2018-02-05T13:13:16.677Z,29.23
2018-02-05T13:14:22.390Z,29.08
2018-02-05T13:15:28.431Z,31.58
2018-02-05T13:16:34.137Z,29.15
2018-02-05T13:17:40.656Z,30.92
2018-02-05T13:18:47.335Z,30.77
2018-02-05T13:19:53.050Z,27.25
2018-02-05T13:20:58.776Z,27.58
2018-02-05T13:22:04.518Z,31.33
2018-02-05T13:23:10.399Z,27.08
2018-02-05T13:24:16.160Z,30.98
2018-02-05T13:25:21.864Z,30.30
2018-02-05T13:26:27.587Z,26.70
2018-02-05T13:27:33.051Z,32.78
2018-02-05T13:28:38.757Z,30.85
2018-02-05T13:29:44.503Z,35.15
2018-02-05T13:30:50.304Z,31.62
2018-02-05T13:31:56.017Z,30.60
2018-02-05T13:33:01.384Z,33.40
2018-02-05T13:34:07.100Z,31.98
2018-02-05T13:35:12.872Z,30.50
2018-02-05T13:36:19.354Z,30.45
2018-02-05T13:37:25.064Z,29.15
2018-02-05T13:38:30.827Z,32.38
2018-02-05T13:39:37.313Z,33.08
2018-02-05T13:40:43.060Z,33.35
2018-02-05T13:41:48.780Z,31.05
2018-02-05T13:42:54.489Z,33.53
2018-02-05T13:44:01.797Z,33.60
2018-02-05T13:45:07.506Z,34.42
2018-02-05T13:46:13.319Z,28.95
2018-02-05T13:47:19.068Z,31.58
2018-02-05T13:48:24.803Z,32.10
2018-02-05T13:49:30.606Z,34.30
2018-02-05T13:50:36.331Z,32.70
2018-02-05T13:51:42.828Z,30.02
2018-02-05T13:52:48.559Z,29.95
2018-02-05T13:53:54.263Z,26.67
2018-02-05T13:55:00.749Z,30.58
2018-02-05T13:56:06.447Z,28.55
2018-02-05T13:57:13.693Z,29.35
2018-02-05T13:58:19.399Z,30.65
2018-02-05T13:59:25.122Z,30.20
2018-02-05T14:00:31.828Z,30.23
2018-02-05T14:01:38.286Z,28.73
2018-02-05T14:02:43.902Z,27.62
2018-02-05T14:03:49.624Z,32.92
2018-02-05T14:04:56.152Z,28.08
2018-02-05T14:06:02.766Z,30.92
2018-02-05T14:07:08.483Z,30.00
2018-02-05T14:08:14.980Z,28.35
2018-02-05T14:09:20.712Z,31.30
2018-02-05T14:10:26.473Z,30.20
2018-02-05T14:11:32.376Z,33.08
2018-02-05T14:12:38.856Z,27.70